sensor_id;sensor_type;location;lat;lon;timestamp;temperature;humidity
66343;DHT22;53144;51.524;5.080;2023-01-19T00:01:14;1.80;94.94
66343;DHT22;53144;51.524;5.080;2023-01-19T00:03:39;1.83;94.78
66343;DHT22;53144;51.524;5.080;2023-01-19T00:06:05;1.84;94.86
66343;DHT22;53144;51.524;5.080;2023-01-19T00:08:31;1.81;94.81
66343;DHT22;53144;51.524;5.080;2023-01-19T00:10:57;1.74;94.96
66343;DHT22;53144;51.524;5.080;2023-01-19T00:13:22;1.81;94.68
66343;DHT22;53144;51.524;5.080;2023-01-19T00:15:47;1.89;94.55
66343;DHT22;53144;51.524;5.080;2023-01-19T00:18:13;1.87;94.38
66343;DHT22;53144;51.524;5.080;2023-01-19T00:20:39;1.86;94.33
66343;DHT22;53144;51.524;5.080;2023-01-19T00:23:04;1.89;94.31
66343;DHT22;53144;51.524;5.080;2023-01-19T00:25:32;1.84;94.45
66343;DHT22;53144;51.524;5.080;2023-01-19T00:27:57;1.79;94.25
66343;DHT22;53144;51.524;5.080;2023-01-19T00:30:23;1.80;94.34
66343;DHT22;53144;51.524;5.080;2023-01-19T00:32:48;1.80;94.05
66343;DHT22;53144;51.524;5.080;2023-01-19T00:35:14;1.81;94.19
66343;DHT22;53144;51.524;5.080;2023-01-19T00:37:39;1.81;94.22
66343;DHT22;53144;51.524;5.080;2023-01-19T00:40:05;1.80;93.97
66343;DHT22;53144;51.524;5.080;2023-01-19T00:42:31;1.74;94.14
66343;DHT22;53144;51.524;5.080;2023-01-19T00:47:38;1.74;94.30
66343;DHT22;53144;51.524;5.080;2023-01-19T00:50:05;1.70;94.19
66343;DHT22;53144;51.524;5.080;2023-01-19T00:52:31;1.67;94.19
66343;DHT22;53144;51.524;5.080;2023-01-19T00:54:56;1.67;94.24
66343;DHT22;53144;51.524;5.080;2023-01-19T00:57:22;1.74;94.27
66343;DHT22;53144;51.524;5.080;2023-01-19T00:59:47;1.79;93.89
66343;DHT22;53144;51.524;5.080;2023-01-19T01:02:13;1.83;93.79
66343;DHT22;53144;51.524;5.080;2023-01-19T01:04:38;1.89;93.48
66343;DHT22;53144;51.524;5.080;2023-01-19T01:07:05;1.90;93.73
66343;DHT22;53144;51.524;5.080;2023-01-19T01:09:30;1.90;93.63
66343;DHT22;53144;51.524;5.080;2023-01-19T01:11:56;1.94;93.21
66343;DHT22;53144;51.524;5.080;2023-01-19T01:14:22;2.01;93.15
66343;DHT22;53144;51.524;5.080;2023-01-19T01:16:48;1.97;93.29
66343;DHT22;53144;51.524;5.080;2023-01-19T01:19:14;1.98;93.47
66343;DHT22;53144;51.524;5.080;2023-01-19T01:21:39;1.98;93.57
66343;DHT22;53144;51.524;5.080;2023-01-19T01:24:06;2.01;93.24
66343;DHT22;53144;51.524;5.080;2023-01-19T01:26:31;2.03;93.24
66343;DHT22;53144;51.524;5.080;2023-01-19T01:28:56;2.07;93.24
66343;DHT22;53144;51.524;5.080;2023-01-19T01:31:22;2.03;93.94
66343;DHT22;53144;51.524;5.080;2023-01-19T01:33:47;2.00;94.09
66343;DHT22;53144;51.524;5.080;2023-01-19T01:36:13;1.89;94.84
66343;DHT22;53144;51.524;5.080;2023-01-19T01:38:39;1.76;95.29
66343;DHT22;53144;51.524;5.080;2023-01-19T01:41:05;1.74;95.77
66343;DHT22;53144;51.524;5.080;2023-01-19T01:44:00;1.67;96.13
66343;DHT22;53144;51.524;5.080;2023-01-19T01:46:29;1.69;96.26
66343;DHT22;53144;51.524;5.080;2023-01-19T01:49:09;1.67;96.34
66343;DHT22;53144;51.524;5.080;2023-01-19T01:51:41;1.63;96.38
66343;DHT22;53144;51.524;5.080;2023-01-19T01:56:46;1.60;96.91
66343;DHT22;53144;51.524;5.080;2023-01-19T01:59:15;1.64;97.19
66343;DHT22;53144;51.524;5.080;2023-01-19T02:01:51;1.69;97.13
66343;DHT22;53144;51.524;5.080;2023-01-19T02:04:36;1.69;97.19
66343;DHT22;53144;51.524;5.080;2023-01-19T02:07:02;1.71;96.86
66343;DHT22;53144;51.524;5.080;2023-01-19T02:09:46;1.64;96.81
66343;DHT22;53144;51.524;5.080;2023-01-19T02:12:30;1.58;97.43
66343;DHT22;53144;51.524;5.080;2023-01-19T02:15:17;1.52;97.32
66343;DHT22;53144;51.524;5.080;2023-01-19T02:17:43;1.50;97.43
66343;DHT22;53144;51.524;5.080;2023-01-19T02:20:09;1.42;97.43
66343;DHT22;53144;51.524;5.080;2023-01-19T02:22:44;1.28;97.49
66343;DHT22;53144;51.524;5.080;2023-01-19T02:25:11;1.15;97.58
66343;DHT22;53144;51.524;5.080;2023-01-19T02:27:36;1.07;97.70
66343;DHT22;53144;51.524;5.080;2023-01-19T02:30:02;0.91;98.01
66343;DHT22;53144;51.524;5.080;2023-01-19T02:32:28;0.80;98.43
66343;DHT22;53144;51.524;5.080;2023-01-19T02:34:54;0.77;98.58
66343;DHT22;53144;51.524;5.080;2023-01-19T02:37:20;0.67;98.50
66343;DHT22;53144;51.524;5.080;2023-01-19T02:39:46;0.60;98.93
66343;DHT22;53144;51.524;5.080;2023-01-19T02:42:24;0.57;99.12
66343;DHT22;53144;51.524;5.080;2023-01-19T02:44:53;0.53;99.36
66343;DHT22;53144;51.524;5.080;2023-01-19T02:47:19;0.54;99.24
66343;DHT22;53144;51.524;5.080;2023-01-19T02:49:56;0.59;99.37
66343;DHT22;53144;51.524;5.080;2023-01-19T02:52:21;0.56;99.30
66343;DHT22;53144;51.524;5.080;2023-01-19T03:02:54;0.49;99.56
66343;DHT22;53144;51.524;5.080;2023-01-19T03:10:54;0.39;99.86
66343;DHT22;53144;51.524;5.080;2023-01-19T03:19:05;0.35;99.99
66343;DHT22;53144;51.524;5.080;2023-01-19T03:21:35;0.33;99.99
66343;DHT22;53144;51.524;5.080;2023-01-19T03:24:03;0.36;99.99
66343;DHT22;53144;51.524;5.080;2023-01-19T03:26:34;0.38;99.99
66343;DHT22;53144;51.524;5.080;2023-01-19T03:29:01;0.39;99.99
66343;DHT22;53144;51.524;5.080;2023-01-19T03:31:29;0.38;99.99
66343;DHT22;53144;51.524;5.080;2023-01-19T03:34:02;0.40;99.99
66343;DHT22;53144;51.524;5.080;2023-01-19T03:36:53;0.40;99.99
66343;DHT22;53144;51.524;5.080;2023-01-19T03:39:23;0.42;99.99
66343;DHT22;53144;51.524;5.080;2023-01-19T03:41:52;0.42;99.99
66343;DHT22;53144;51.524;5.080;2023-01-19T03:44:18;0.38;99.99
66343;DHT22;53144;51.524;5.080;2023-01-19T03:46:45;0.38;99.99
66343;DHT22;53144;51.524;5.080;2023-01-19T03:49:12;0.39;99.99
66343;DHT22;53144;51.524;5.080;2023-01-19T03:51:38;0.36;99.99
66343;DHT22;53144;51.524;5.080;2023-01-19T03:54:05;0.42;99.99
66343;DHT22;53144;51.524;5.080;2023-01-19T03:56:30;0.40;99.99
66343;DHT22;53144;51.524;5.080;2023-01-19T03:58:56;0.33;99.99
66343;DHT22;53144;51.524;5.080;2023-01-19T04:01:21;0.39;99.99
66343;DHT22;53144;51.524;5.080;2023-01-19T04:03:51;0.38;99.99
66343;DHT22;53144;51.524;5.080;2023-01-19T04:06:17;0.36;99.99
66343;DHT22;53144;51.524;5.080;2023-01-19T04:08:43;0.35;99.99
66343;DHT22;53144;51.524;5.080;2023-01-19T04:11:08;0.29;99.99
66343;DHT22;53144;51.524;5.080;2023-01-19T04:13:34;0.33;99.99
66343;DHT22;53144;51.524;5.080;2023-01-19T04:16:01;0.33;99.99
66343;DHT22;53144;51.524;5.080;2023-01-19T04:18:27;0.30;99.99
66343;DHT22;53144;51.524;5.080;2023-01-19T04:20:53;0.33;99.99
66343;DHT22;53144;51.524;5.080;2023-01-19T04:23:19;0.30;99.99
66343;DHT22;53144;51.524;5.080;2023-01-19T04:25:44;0.28;99.99
66343;DHT22;53144;51.524;5.080;2023-01-19T04:28:10;0.30;99.99
66343;DHT22;53144;51.524;5.080;2023-01-19T04:30:36;0.35;99.99
66343;DHT22;53144;51.524;5.080;2023-01-19T04:33:01;0.30;99.99
66343;DHT22;53144;51.524;5.080;2023-01-19T04:35:27;0.29;99.99
66343;DHT22;53144;51.524;5.080;2023-01-19T04:37:52;0.33;99.99
66343;DHT22;53144;51.524;5.080;2023-01-19T04:40:18;0.40;99.99
66343;DHT22;53144;51.524;5.080;2023-01-19T04:42:44;0.38;99.99
66343;DHT22;53144;51.524;5.080;2023-01-19T04:45:11;0.38;99.99
66343;DHT22;53144;51.524;5.080;2023-01-19T04:47:37;0.43;99.99
66343;DHT22;53144;51.524;5.080;2023-01-19T04:50:02;0.39;99.99
66343;DHT22;53144;51.524;5.080;2023-01-19T04:52:31;0.42;99.99
66343;DHT22;53144;51.524;5.080;2023-01-19T04:55:02;0.48;99.99
66343;DHT22;53144;51.524;5.080;2023-01-19T04:57:28;0.46;99.99
66343;DHT22;53144;51.524;5.080;2023-01-19T04:59:55;0.49;99.99
66343;DHT22;53144;51.524;5.080;2023-01-19T05:02:20;0.56;99.99
66343;DHT22;53144;51.524;5.080;2023-01-19T05:04:46;0.53;99.99
66343;DHT22;53144;51.524;5.080;2023-01-19T05:07:12;0.60;99.99
66343;DHT22;53144;51.524;5.080;2023-01-19T05:09:37;0.66;99.99
66343;DHT22;53144;51.524;5.080;2023-01-19T05:12:03;0.64;99.90
66343;DHT22;53144;51.524;5.080;2023-01-19T05:14:28;0.66;99.48
66343;DHT22;53144;51.524;5.080;2023-01-19T05:16:54;0.81;99.22
66343;DHT22;53144;51.524;5.080;2023-01-19T05:19:19;0.63;98.95
66343;DHT22;53144;51.524;5.080;2023-01-19T05:21:45;0.50;99.40
66343;DHT22;53144;51.524;5.080;2023-01-19T05:24:11;0.42;99.65
66343;DHT22;53144;51.524;5.080;2023-01-19T05:26:36;0.43;99.90
66343;DHT22;53144;51.524;5.080;2023-01-19T05:29:02;0.43;99.99
66343;DHT22;53144;51.524;5.080;2023-01-19T05:31:27;0.43;99.99
66343;DHT22;53144;51.524;5.080;2023-01-19T05:33:53;0.45;99.99
66343;DHT22;53144;51.524;5.080;2023-01-19T05:36:18;0.49;99.99
66343;DHT22;53144;51.524;5.080;2023-01-19T05:38:44;0.57;99.99
66343;DHT22;53144;51.524;5.080;2023-01-19T05:41:09;0.57;99.81
66343;DHT22;53144;51.524;5.080;2023-01-19T05:43:34;0.61;99.63
66343;DHT22;53144;51.524;5.080;2023-01-19T05:46:02;0.63;99.50
66343;DHT22;53144;51.524;5.080;2023-01-19T05:48:28;0.63;99.50
66343;DHT22;53144;51.524;5.080;2023-01-19T05:50:56;0.69;99.51
66343;DHT22;53144;51.524;5.080;2023-01-19T05:53:22;0.69;99.54
66343;DHT22;53144;51.524;5.080;2023-01-19T05:55:47;0.69;99.56
66343;DHT22;53144;51.524;5.080;2023-01-19T05:58:12;0.67;99.57
66343;DHT22;53144;51.524;5.080;2023-01-19T06:00:38;0.66;99.55
66343;DHT22;53144;51.524;5.080;2023-01-19T06:03:03;0.64;99.58
66343;DHT22;53144;51.524;5.080;2023-01-19T06:05:30;0.70;99.56
66343;DHT22;53144;51.524;5.080;2023-01-19T06:07:56;0.67;99.57
66343;DHT22;53144;51.524;5.080;2023-01-19T06:10:22;0.69;99.56
66343;DHT22;53144;51.524;5.080;2023-01-19T06:12:47;0.67;99.62
66343;DHT22;53144;51.524;5.080;2023-01-19T06:15:13;0.67;99.69
66343;DHT22;53144;51.524;5.080;2023-01-19T06:17:39;0.66;99.74
66343;DHT22;53144;51.524;5.080;2023-01-19T06:20:05;0.70;99.71
66343;DHT22;53144;51.524;5.080;2023-01-19T06:22:31;0.73;99.72
66343;DHT22;53144;51.524;5.080;2023-01-19T06:24:56;0.67;99.64
66343;DHT22;53144;51.524;5.080;2023-01-19T06:27:21;0.71;99.72
66343;DHT22;53144;51.524;5.080;2023-01-19T06:29:47;0.84;99.62
66343;DHT22;53144;51.524;5.080;2023-01-19T06:32:12;0.80;99.41
66343;DHT22;53144;51.524;5.080;2023-01-19T06:34:38;0.74;99.39
66343;DHT22;53144;51.524;5.080;2023-01-19T06:37:08;0.73;99.58
66343;DHT22;53144;51.524;5.080;2023-01-19T06:39:35;0.76;99.71
66343;DHT22;53144;51.524;5.080;2023-01-19T06:42:01;0.77;99.81
66343;DHT22;53144;51.524;5.080;2023-01-19T06:44:27;0.73;99.95
66343;DHT22;53144;51.524;5.080;2023-01-19T06:46:53;0.73;99.99
66343;DHT22;53144;51.524;5.080;2023-01-19T06:49:18;0.67;99.99
66343;DHT22;53144;51.524;5.080;2023-01-19T06:51:43;0.63;99.99
66343;DHT22;53144;51.524;5.080;2023-01-19T06:54:09;0.67;99.99
66343;DHT22;53144;51.524;5.080;2023-01-19T06:56:34;0.71;99.99
66343;DHT22;53144;51.524;5.080;2023-01-19T06:58:59;0.69;99.99
66343;DHT22;53144;51.524;5.080;2023-01-19T07:01:25;0.80;99.99
66343;DHT22;53144;51.524;5.080;2023-01-19T07:03:51;0.80;99.99
66343;DHT22;53144;51.524;5.080;2023-01-19T07:06:16;0.83;99.99
66343;DHT22;53144;51.524;5.080;2023-01-19T07:08:41;0.80;99.99
66343;DHT22;53144;51.524;5.080;2023-01-19T07:11:09;0.79;99.99
66343;DHT22;53144;51.524;5.080;2023-01-19T07:13:35;0.85;99.99
66343;DHT22;53144;51.524;5.080;2023-01-19T07:16:10;0.87;99.99
66343;DHT22;53144;51.524;5.080;2023-01-19T07:18:36;0.87;99.99
66343;DHT22;53144;51.524;5.080;2023-01-19T07:21:02;0.83;99.99
66343;DHT22;53144;51.524;5.080;2023-01-19T07:23:28;0.90;99.99
66343;DHT22;53144;51.524;5.080;2023-01-19T07:25:56;0.94;99.99
66343;DHT22;53144;51.524;5.080;2023-01-19T07:28:21;0.92;99.99
66343;DHT22;53144;51.524;5.080;2023-01-19T07:30:50;0.94;99.99
66343;DHT22;53144;51.524;5.080;2023-01-19T07:33:15;0.91;99.96
66343;DHT22;53144;51.524;5.080;2023-01-19T07:35:45;0.85;99.99
66343;DHT22;53144;51.524;5.080;2023-01-19T07:38:11;0.94;99.99
66343;DHT22;53144;51.524;5.080;2023-01-19T07:40:37;0.91;99.99
66343;DHT22;53144;51.524;5.080;2023-01-19T07:43:02;0.91;99.99
66343;DHT22;53144;51.524;5.080;2023-01-19T07:45:27;0.95;99.99
66343;DHT22;53144;51.524;5.080;2023-01-19T07:47:53;0.94;99.99
66343;DHT22;53144;51.524;5.080;2023-01-19T07:50:18;0.88;99.99
66343;DHT22;53144;51.524;5.080;2023-01-19T07:52:47;0.85;99.99
66343;DHT22;53144;51.524;5.080;2023-01-19T07:55:18;0.88;99.99
66343;DHT22;53144;51.524;5.080;2023-01-19T07:57:44;0.90;99.99
66343;DHT22;53144;51.524;5.080;2023-01-19T08:00:09;0.87;99.99
66343;DHT22;53144;51.524;5.080;2023-01-19T08:02:35;0.84;99.99
66343;DHT22;53144;51.524;5.080;2023-01-19T08:05:02;0.87;99.99
66343;DHT22;53144;51.524;5.080;2023-01-19T08:07:28;0.85;99.99
66343;DHT22;53144;51.524;5.080;2023-01-19T08:09:53;0.90;99.99
66343;DHT22;53144;51.524;5.080;2023-01-19T08:12:18;0.85;99.99
66343;DHT22;53144;51.524;5.080;2023-01-19T08:14:44;0.84;99.99
66343;DHT22;53144;51.524;5.080;2023-01-19T08:17:11;0.90;99.99
66343;DHT22;53144;51.524;5.080;2023-01-19T08:19:37;0.88;99.99
66343;DHT22;53144;51.524;5.080;2023-01-19T08:22:03;0.90;99.99
66343;DHT22;53144;51.524;5.080;2023-01-19T08:24:29;0.85;99.95
66343;DHT22;53144;51.524;5.080;2023-01-19T08:27:00;0.81;99.97
66343;DHT22;53144;51.524;5.080;2023-01-19T08:29:26;0.80;99.99
66343;DHT22;53144;51.524;5.080;2023-01-19T08:31:51;0.81;99.98
66343;DHT22;53144;51.524;5.080;2023-01-19T08:34:19;0.81;99.99
66343;DHT22;53144;51.524;5.080;2023-01-19T08:36:44;0.90;99.95
66343;DHT22;53144;51.524;5.080;2023-01-19T08:39:10;0.91;99.71
66343;DHT22;53144;51.524;5.080;2023-01-19T08:41:36;0.91;99.67
66343;DHT22;53144;51.524;5.080;2023-01-19T08:44:02;0.92;99.62
66343;DHT22;53144;51.524;5.080;2023-01-19T08:46:27;0.94;99.61
66343;DHT22;53144;51.524;5.080;2023-01-19T08:48:53;0.95;99.54
66343;DHT22;53144;51.524;5.080;2023-01-19T08:51:19;0.90;99.42
66343;DHT22;53144;51.524;5.080;2023-01-19T08:53:45;1.00;99.32
66343;DHT22;53144;51.524;5.080;2023-01-19T08:56:11;0.95;99.16
66343;DHT22;53144;51.524;5.080;2023-01-19T08:58:42;1.00;99.14
66343;DHT22;53144;51.524;5.080;2023-01-19T09:01:10;1.01;99.18
66343;DHT22;53144;51.524;5.080;2023-01-19T09:03:39;1.01;98.95
66343;DHT22;53144;51.524;5.080;2023-01-19T09:06:08;1.08;98.90
66343;DHT22;53144;51.524;5.080;2023-01-19T09:08:34;1.07;98.95
66343;DHT22;53144;51.524;5.080;2023-01-19T09:11:00;1.01;98.97
66343;DHT22;53144;51.524;5.080;2023-01-19T09:13:25;1.11;98.95
66343;DHT22;53144;51.524;5.080;2023-01-19T09:15:51;1.15;98.83
66343;DHT22;53144;51.524;5.080;2023-01-19T09:18:19;1.18;98.69
66343;DHT22;53144;51.524;5.080;2023-01-19T09:20:47;1.27;98.44
66343;DHT22;53144;51.524;5.080;2023-01-19T09:23:18;1.35;98.41
66343;DHT22;53144;51.524;5.080;2023-01-19T09:25:45;1.39;98.10
66343;DHT22;53144;51.524;5.080;2023-01-19T09:28:12;1.56;98.20
66343;DHT22;53144;51.524;5.080;2023-01-19T09:30:39;1.60;97.58
66343;DHT22;53144;51.524;5.080;2023-01-19T09:33:08;1.67;97.14
66343;DHT22;53144;51.524;5.080;2023-01-19T09:35:36;1.73;97.10
66343;DHT22;53144;51.524;5.080;2023-01-19T09:38:02;1.70;96.85
66343;DHT22;53144;51.524;5.080;2023-01-19T09:40:28;2.00;96.42
66343;DHT22;53144;51.524;5.080;2023-01-19T09:42:56;2.17;95.72
66343;DHT22;53144;51.524;5.080;2023-01-19T09:45:40;2.38;95.35
66343;DHT22;53144;51.524;5.080;2023-01-19T09:51:01;2.75;93.95
66343;DHT22;53144;51.524;5.080;2023-01-19T09:53:44;3.01;93.49
66343;DHT22;53144;51.524;5.080;2023-01-19T09:56:16;3.10;92.46
66343;DHT22;53144;51.524;5.080;2023-01-19T09:58:42;3.01;92.68
66343;DHT22;53144;51.524;5.080;2023-01-19T10:01:31;3.14;92.35
66343;DHT22;53144;51.524;5.080;2023-01-19T10:18:07;4.00;90.04
66343;DHT22;53144;51.524;5.080;2023-01-19T10:20:39;3.86;89.74
66343;DHT22;53144;51.524;5.080;2023-01-19T10:25:46;4.11;89.78
66343;DHT22;53144;51.524;5.080;2023-01-19T10:28:13;4.02;89.66
66343;DHT22;53144;51.524;5.080;2023-01-19T10:30:41;3.99;89.85
66343;DHT22;53144;51.524;5.080;2023-01-19T10:33:11;3.90;89.97
66343;DHT22;53144;51.524;5.080;2023-01-19T10:35:37;3.96;89.69
66343;DHT22;53144;51.524;5.080;2023-01-19T10:38:02;3.85;90.39
66343;DHT22;53144;51.524;5.080;2023-01-19T10:42:57;4.06;90.28
66343;DHT22;53144;51.524;5.080;2023-01-19T10:45:26;3.66;90.71
66343;DHT22;53144;51.524;5.080;2023-01-19T10:47:54;3.50;91.33
66343;DHT22;53144;51.524;5.080;2023-01-19T10:50:31;3.16;92.30
66343;DHT22;53144;51.524;5.080;2023-01-19T10:52:59;2.89;93.26
66343;DHT22;53144;51.524;5.080;2023-01-19T10:55:30;2.69;94.00
66343;DHT22;53144;51.524;5.080;2023-01-19T10:57:57;2.63;94.46
66343;DHT22;53144;51.524;5.080;2023-01-19T11:00:40;2.65;94.76
66343;DHT22;53144;51.524;5.080;2023-01-19T11:03:28;2.59;94.98
66343;DHT22;53144;51.524;5.080;2023-01-19T11:08:38;2.76;95.14
66343;DHT22;53144;51.524;5.080;2023-01-19T11:11:04;2.75;95.34
66343;DHT22;53144;51.524;5.080;2023-01-19T11:13:32;2.77;95.22
66343;DHT22;53144;51.524;5.080;2023-01-19T11:16:05;2.86;95.12
66343;DHT22;53144;51.524;5.080;2023-01-19T11:18:34;2.86;95.04
66343;DHT22;53144;51.524;5.080;2023-01-19T11:21:09;2.89;95.38
66343;DHT22;53144;51.524;5.080;2023-01-19T11:23:37;2.90;95.18
66343;DHT22;53144;51.524;5.080;2023-01-19T11:26:08;3.04;95.19
66343;DHT22;53144;51.524;5.080;2023-01-19T11:28:41;3.03;95.05
66343;DHT22;53144;51.524;5.080;2023-01-19T11:33:59;2.99;94.85
66343;DHT22;53144;51.524;5.080;2023-01-19T11:36:30;3.03;95.05
66343;DHT22;53144;51.524;5.080;2023-01-19T11:39:20;3.00;94.84
66343;DHT22;53144;51.524;5.080;2023-01-19T11:41:51;3.04;94.92
66343;DHT22;53144;51.524;5.080;2023-01-19T11:44:28;3.03;95.20
66343;DHT22;53144;51.524;5.080;2023-01-19T11:46:57;3.04;95.15
66343;DHT22;53144;51.524;5.080;2023-01-19T11:52:21;3.07;94.77
66343;DHT22;53144;51.524;5.080;2023-01-19T11:54:55;3.13;94.95
66343;DHT22;53144;51.524;5.080;2023-01-19T11:57:22;3.20;94.82
66343;DHT22;53144;51.524;5.080;2023-01-19T11:59:47;3.21;94.53
66343;DHT22;53144;51.524;5.080;2023-01-19T12:02:23;3.24;94.35
66343;DHT22;53144;51.524;5.080;2023-01-19T12:04:53;3.24;94.67
66343;DHT22;53144;51.524;5.080;2023-01-19T12:07:25;3.23;94.96
66343;DHT22;53144;51.524;5.080;2023-01-19T12:09:57;3.24;95.03
66343;DHT22;53144;51.524;5.080;2023-01-19T12:12:29;3.26;94.26
66343;DHT22;53144;51.524;5.080;2023-01-19T12:15:14;3.23;94.26
66343;DHT22;53144;51.524;5.080;2023-01-19T12:17:47;3.30;94.25
66343;DHT22;53144;51.524;5.080;2023-01-19T12:20:51;3.30;94.29
66343;DHT22;53144;51.524;5.080;2023-01-19T12:26:36;3.26;94.26
66343;DHT22;53144;51.524;5.080;2023-01-19T12:29:06;3.30;94.33
66343;DHT22;53144;51.524;5.080;2023-01-19T12:31:35;3.34;94.49
66343;DHT22;53144;51.524;5.080;2023-01-19T12:37:03;3.30;94.74
66343;DHT22;53144;51.524;5.080;2023-01-19T12:39:30;3.32;94.67
66343;DHT22;53144;51.524;5.080;2023-01-19T12:42:23;3.35;94.32
66343;DHT22;53144;51.524;5.080;2023-01-19T12:45:02;3.37;94.56
66343;DHT22;53144;51.524;5.080;2023-01-19T12:47:28;3.39;94.13
66343;DHT22;53144;51.524;5.080;2023-01-19T12:49:57;3.35;93.64
66343;DHT22;53144;51.524;5.080;2023-01-19T12:52:33;3.35;93.97
66343;DHT22;53144;51.524;5.080;2023-01-19T12:57:38;3.34;93.49
66343;DHT22;53144;51.524;5.080;2023-01-19T13:00:06;3.32;94.12
66343;DHT22;53144;51.524;5.080;2023-01-19T13:02:44;3.32;93.62
66343;DHT22;53144;51.524;5.080;2023-01-19T13:05:18;3.32;93.69
66343;DHT22;53144;51.524;5.080;2023-01-19T13:21:32;3.64;92.83
66343;DHT22;53144;51.524;5.080;2023-01-19T13:26:31;3.89;91.85
66343;DHT22;53144;51.524;5.080;2023-01-19T13:29:04;4.00;91.45
66343;DHT22;53144;51.524;5.080;2023-01-19T13:31:38;3.87;91.00
66343;DHT22;53144;51.524;5.080;2023-01-19T13:34:11;4.05;90.72
66343;DHT22;53144;51.524;5.080;2023-01-19T13:36:42;3.86;91.06
66343;DHT22;53144;51.524;5.080;2023-01-19T13:39:26;3.79;91.15
66343;DHT22;53144;51.524;5.080;2023-01-19T13:41:55;3.78;91.73
66343;DHT22;53144;51.524;5.080;2023-01-19T13:44:41;3.89;91.48
66343;DHT22;53144;51.524;5.080;2023-01-19T13:47:17;3.96;91.00
66343;DHT22;53144;51.524;5.080;2023-01-19T13:49:45;4.09;90.47
66343;DHT22;53144;51.524;5.080;2023-01-19T14:05:33;3.74;91.60
66343;DHT22;53144;51.524;5.080;2023-01-19T14:10:28;3.65;92.10
66343;DHT22;53144;51.524;5.080;2023-01-19T14:13:12;3.55;91.93
66343;DHT22;53144;51.524;5.080;2023-01-19T14:15:38;3.48;92.09
66343;DHT22;53144;51.524;5.080;2023-01-19T14:21:02;3.48;91.99
66343;DHT22;53144;51.524;5.080;2023-01-19T14:26:37;3.59;91.92
66343;DHT22;53144;51.524;5.080;2023-01-19T14:28:51;3.56;92.03
66343;DHT22;53144;51.524;5.080;2023-01-19T14:31:22;3.32;91.66
66343;DHT22;53144;51.524;5.080;2023-01-19T14:33:53;3.30;91.64
66343;DHT22;53144;51.524;5.080;2023-01-19T14:38:58;3.31;91.95
66343;DHT22;53144;51.524;5.080;2023-01-19T14:41:43;3.24;91.79
66343;DHT22;53144;51.524;5.080;2023-01-19T14:44:10;3.13;91.99
66343;DHT22;53144;51.524;5.080;2023-01-19T14:46:36;2.90;92.56
66343;DHT22;53144;51.524;5.080;2023-01-19T14:49:04;2.86;92.70
66343;DHT22;53144;51.524;5.080;2023-01-19T14:51:30;2.87;92.94
66343;DHT22;53144;51.524;5.080;2023-01-19T14:53:57;2.82;93.17
66343;DHT22;53144;51.524;5.080;2023-01-19T14:56:28;2.75;93.25
66343;DHT22;53144;51.524;5.080;2023-01-19T14:58:55;2.75;93.20
66343;DHT22;53144;51.524;5.080;2023-01-19T15:01:22;2.76;93.34
66343;DHT22;53144;51.524;5.080;2023-01-19T15:03:48;2.71;93.27
66343;DHT22;53144;51.524;5.080;2023-01-19T15:06:18;2.68;93.06
66343;DHT22;53144;51.524;5.080;2023-01-19T15:08:45;2.66;93.43
66343;DHT22;53144;51.524;5.080;2023-01-19T15:11:25;2.62;93.42
66343;DHT22;53144;51.524;5.080;2023-01-19T15:13:51;2.55;92.92
66343;DHT22;53144;51.524;5.080;2023-01-19T15:16:17;2.59;93.53
66343;DHT22;53144;51.524;5.080;2023-01-19T15:18:42;2.55;93.35
66343;DHT22;53144;51.524;5.080;2023-01-19T15:21:13;2.50;93.54
66343;DHT22;53144;51.524;5.080;2023-01-19T15:23:39;2.48;93.83
66343;DHT22;53144;51.524;5.080;2023-01-19T15:26:05;2.42;93.94
66343;DHT22;53144;51.524;5.080;2023-01-19T15:28:31;2.38;94.22
66343;DHT22;53144;51.524;5.080;2023-01-19T15:30:59;2.32;94.04
66343;DHT22;53144;51.524;5.080;2023-01-19T15:33:27;2.27;94.41
66343;DHT22;53144;51.524;5.080;2023-01-19T15:35:54;2.28;94.48
66343;DHT22;53144;51.524;5.080;2023-01-19T15:38:20;2.15;94.53
66343;DHT22;53144;51.524;5.080;2023-01-19T15:40:46;2.07;94.74
66343;DHT22;53144;51.524;5.080;2023-01-19T15:43:12;2.06;95.08
66343;DHT22;53144;51.524;5.080;2023-01-19T15:45:41;1.94;95.19
66343;DHT22;53144;51.524;5.080;2023-01-19T15:48:09;1.98;94.98
66343;DHT22;53144;51.524;5.080;2023-01-19T15:50:37;1.94;95.37
66343;DHT22;53144;51.524;5.080;2023-01-19T15:53:03;1.98;95.28
66343;DHT22;53144;51.524;5.080;2023-01-19T15:55:29;1.84;95.50
66343;DHT22;53144;51.524;5.080;2023-01-19T15:57:54;1.86;95.34
66343;DHT22;53144;51.524;5.080;2023-01-19T16:00:30;1.77;95.31
66343;DHT22;53144;51.524;5.080;2023-01-19T16:02:56;1.76;95.45
66343;DHT22;53144;51.524;5.080;2023-01-19T16:05:22;1.73;95.36
66343;DHT22;53144;51.524;5.080;2023-01-19T16:07:47;1.63;95.65
66343;DHT22;53144;51.524;5.080;2023-01-19T16:10:12;1.69;95.59
66343;DHT22;53144;51.524;5.080;2023-01-19T16:12:38;1.59;95.64
66343;DHT22;53144;51.524;5.080;2023-01-19T16:15:04;1.52;95.96
66343;DHT22;53144;51.524;5.080;2023-01-19T16:17:29;1.53;95.89
66343;DHT22;53144;51.524;5.080;2023-01-19T16:19:55;1.50;95.91
66343;DHT22;53144;51.524;5.080;2023-01-19T16:22:20;1.48;95.81
66343;DHT22;53144;51.524;5.080;2023-01-19T16:24:45;1.39;95.91
66343;DHT22;53144;51.524;5.080;2023-01-19T16:27:11;1.32;96.04
66343;DHT22;53144;51.524;5.080;2023-01-19T16:29:36;1.18;96.07
66343;DHT22;53144;51.524;5.080;2023-01-19T16:32:02;1.12;96.45
66343;DHT22;53144;51.524;5.080;2023-01-19T16:34:27;1.09;96.79
66343;DHT22;53144;51.524;5.080;2023-01-19T16:36:53;1.04;96.74
66343;DHT22;53144;51.524;5.080;2023-01-19T16:39:18;1.02;96.92
66343;DHT22;53144;51.524;5.080;2023-01-19T16:41:44;1.04;96.76
66343;DHT22;53144;51.524;5.080;2023-01-19T16:44:11;0.95;96.78
66343;DHT22;53144;51.524;5.080;2023-01-19T16:46:42;0.91;97.02
66343;DHT22;53144;51.524;5.080;2023-01-19T16:49:19;0.84;97.19
66343;DHT22;53144;51.524;5.080;2023-01-19T16:51:45;0.88;97.17
66343;DHT22;53144;51.524;5.080;2023-01-19T16:54:13;0.90;97.18
66343;DHT22;53144;51.524;5.080;2023-01-19T16:56:39;0.77;96.94
66343;DHT22;53144;51.524;5.080;2023-01-19T16:59:05;0.70;97.10
66343;DHT22;53144;51.524;5.080;2023-01-19T17:01:30;0.60;97.13
66343;DHT22;53144;51.524;5.080;2023-01-19T17:03:56;0.56;97.33
66343;DHT22;53144;51.524;5.080;2023-01-19T17:06:22;0.56;97.44
66343;DHT22;53144;51.524;5.080;2023-01-19T17:08:49;0.53;97.59
66343;DHT22;53144;51.524;5.080;2023-01-19T17:11:23;0.50;97.71
66343;DHT22;53144;51.524;5.080;2023-01-19T17:13:57;0.46;97.64
66343;DHT22;53144;51.524;5.080;2023-01-19T17:16:25;0.46;97.59
66343;DHT22;53144;51.524;5.080;2023-01-19T17:18:51;0.43;97.93
66343;DHT22;53144;51.524;5.080;2023-01-19T17:21:17;0.45;97.76
66343;DHT22;53144;51.524;5.080;2023-01-19T17:23:47;0.42;97.85
66343;DHT22;53144;51.524;5.080;2023-01-19T17:26:14;0.42;97.96
66343;DHT22;53144;51.524;5.080;2023-01-19T17:28:39;0.38;98.05
66343;DHT22;53144;51.524;5.080;2023-01-19T17:31:13;0.36;97.98
66343;DHT22;53144;51.524;5.080;2023-01-19T17:33:38;0.38;98.09
66343;DHT22;53144;51.524;5.080;2023-01-19T17:36:06;0.32;98.13